首页
METAR-TAF:

METAR-TAF

机场 :

哥伦布, 喬治亞, 美国

纬度: 32-30-58N, 经度: 084-56-32W, 海拔: 121米

当前天气观测

该预报发布于56分钟前的07:51 UTC
风速5节,风向
温度 13°C
湿度 88%
气压 1011 hPa
能見度: 16.1公里
少量云层高于6000英尺
多云层高于12000英尺
小雨

METAR: KCSG 170751Z AUTO 10005KT 10SM -RA FEW060 BKN120 13/11 A2985 RMK AO2 RAB44 SLP107 P0000 T01330111

时间: 03:47 (08:47 UTC)

预报

该预报发布于3小时和10分钟前的05:37 UTC
预报有效从17日的 06点(UTC)到 18日的 06点(UTC)
风速5节,风向东北
能見度: 10公里
散云层高于1500英尺
多云层高于3500英尺
从 17日的 0900点(UTC)
风速5节,风向
能見度: 10公里
多云层高于800英尺
多云层高于1500英尺
从 17日的 1200点(UTC)
风速7节,风向东转东南
能見度: 4.8公里
阴天层高于500英尺
小毛毛雨, 轻雾
从 17日的 1600点(UTC)
风速7节,风向东转东南
能見度: 6.4公里
多云层高于800英尺
轻雾, 附近有阵雨
从 17日的 2000点(UTC)
风速8节,风向南转南东
能見度: 10公里
散云层高于2000英尺
多云层高于3000英尺
几率 30%
从 17日的 20点(UTC)到 17日的 24点(UTC)
小阵雨
从 18日的 0000点(UTC)
风速9节,风向
能見度: 10公里
多云层高于2500英尺
附近有阵雨

TAF: KCSG 170537Z 1706/1806 05005KT P6SM SCT015 BKN035 FM170900 08005KT P6SM BKN008 BKN015 FM171200 11007KT 3SM -DZ BR OVC005 FM171600 12007KT 4SM BR VCSH BKN008 FM172000 16008KT P6SM SCT020 BKN030 PROB30 1720/1724 -SHRA FM180000 19009KT P6SM VCSH BKN025

超过4000个机场的气象观测和天气预报(METAR&TAF报告)。

可查询的气象台以黄色和红色小点在地图上表示。

将鼠标移到小点上方,可查看气象台名称。

然后点击查看天气观测和预报。

如需切换地图:点击带黑十字的绿色按钮放大地图;点击带横线的绿色按钮缩小地图;或者点击绿色箭头查看邻近地区的地图。


METAR-TAF: